Time;durP1;ratioP1;P1;durP2;ratioP2;P2;SDS_P1;SDS_P2;PMS_P1;PMS_P2;Temp;Humidity;BMP_temperature;BMP_pressure;BME280_temperature;BME280_humidity;BME280_pressure;Samples;Min_cycle;Max_cycle;Signal;HPM_P1;HPM_P2
2022/08/16 04:31:20;;;;;;;;;24.33;18.00;;;;;23.58;51.53;100423.31;5540350;23;45452;-64
2022/08/16 04:33:45;;;;;;;;;19.33;18.00;;;;;23.57;51.75;100438.78;5037193;28;75381;-64
2022/08/16 04:36:11;;;;;;;;;16.00;16.00;;;;;23.53;51.44;100445.56;5038572;28;66158;-65
2022/08/16 04:38:37;;;;;;;;;16.00;16.00;;;;;23.48;51.56;100428.94;5040593;28;45517;-67
2022/08/16 04:41:02;;;;;;;;;21.33;20.33;;;;;23.46;51.82;100437.22;5037537;28;45709;-65
2022/08/16 04:43:28;;;;;;;;;18.33;17.00;;;;;23.50;51.76;100435.03;5039314;28;46079;-64
2022/08/16 04:45:54;;;;;;;;;17.00;15.67;;;;;23.51;51.69;100433.19;5040823;28;68329;-65
2022/08/16 04:48:19;;;;;;;;;20.67;20.67;;;;;23.50;51.74;100434.19;5040080;28;45404;-64
2022/08/16 04:50:44;;;;;;;;;18.00;17.33;;;;;23.48;52.00;100431.66;5039510;28;69590;-64
2022/08/16 04:53:10;;;;;;;;;22.33;20.00;;;;;23.50;52.11;100432.31;5040668;28;45917;-64
2022/08/16 04:55:36;;;;;;;;;17.33;16.33;;;;;23.49;51.90;100430.59;5032492;28;46854;-65
2022/08/16 04:58:02;;;;;;;;;19.00;17.33;;;;;23.45;51.71;100430.13;5040555;28;45320;-65
2022/08/16 05:00:32;;;;;;;;;20.00;17.00;;;;;23.40;51.88;100435.22;5044276;28;45429;-64
2022/08/16 05:02:58;;;;;;;;;16.33;16.33;;;;;23.38;51.93;100447.25;5036257;28;47278;-64
2022/08/16 05:05:24;;;;;;;;;17.00;17.00;;;;;23.39;52.26;100441.66;5038101;28;45494;-64
2022/08/16 05:07:49;;;;;;;;;18.67;18.00;;;;;23.40;51.99;100439.78;5032672;28;63326;-64
2022/08/16 05:10:15;;;;;;;;;16.00;16.00;;;;;23.41;52.20;100438.75;5035870;28;70393;-64
2022/08/16 05:12:41;;;;;;;;;19.00;15.67;;;;;23.43;52.08;100447.59;5031814;28;46031;-63
2022/08/16 05:15:07;;;;;;;;;15.00;15.00;;;;;23.44;52.34;100444.69;5036921;28;45499;-64
2022/08/16 05:17:33;;;;;;;;;16.67;16.67;;;;;23.43;52.23;100450.31;5039032;28;45417;-63
2022/08/16 05:19:59;;;;;;;;;18.33;18.33;;;;;23.46;52.28;100468.94;5032721;28;45430;-64
2022/08/16 05:22:24;;;;;;;;;19.00;18.67;;;;;23.49;51.88;100475.91;5039316;28;45351;-65
2022/08/16 05:24:50;;;;;;;;;20.00;18.67;;;;;23.54;52.51;100468.09;5039465;28;45344;-64
2022/08/16 05:27:15;;;;;;;;;16.00;16.00;;;;;23.55;52.15;100481.50;5031325;28;45374;-66
2022/08/16 05:29:41;;;;;;;;;20.00;17.67;;;;;23.54;52.59;100481.69;5039189;28;63151;-66
2022/08/16 05:32:07;;;;;;;;;20.67;19.00;;;;;23.54;52.58;100476.25;5036275;28;46262;-66
2022/08/16 05:34:32;;;;;;;;;18.00;17.00;;;;;23.52;52.83;100481.84;5037503;28;45402;-66
2022/08/16 05:36:57;;;;;;;;;19.00;18.00;;;;;23.50;53.23;100486.59;5037549;28;59148;-66
2022/08/16 05:39:24;;;;;;;;;23.33;22.33;;;;;23.48;52.84;100479.63;5040766;28;45344;-67
2022/08/16 05:41:50;;;;;;;;;16.67;16.00;;;;;23.46;52.83;100479.81;5028018;28;46298;-67
2022/08/16 05:44:16;;;;;;;;;16.00;14.00;;;;;23.48;52.84;100476.91;5040597;28;45410;-66
2022/08/16 05:46:43;;;;;;;;;14.33;14.33;;;;;23.48;52.90;100483.22;5038890;28;45526;-67
2022/08/16 05:49:09;;;;;;;;;19.67;19.67;;;;;23.46;52.86;100480.63;5040661;28;45339;-67
2022/08/16 05:51:35;;;;;;;;;12.67;12.33;;;;;23.46;52.80;100475.22;5038230;28;45439;-67
2022/08/16 05:54:01;;;;;;;;;14.00;14.00;;;;;23.47;52.67;100484.22;5039462;28;45417;-67
2022/08/16 05:56:26;;;;;;;;;12.33;11.00;;;;;23.49;52.83;100484.88;5039409;28;46833;-67
2022/08/16 05:58:51;;;;;;;;;18.00;16.33;;;;;23.53;52.68;100485.41;5039128;28;63029;-67
2022/08/16 06:01:17;;;;;;;;;14.00;13.67;;;;;23.55;52.63;100491.53;5039508;28;70017;-66
2022/08/16 06:03:42;;;;;;;;;15.33;13.67;;;;;23.57;52.80;100492.19;5043838;28;45280;-67
2022/08/16 06:06:07;;;;;;;;;15.00;12.00;;;;;23.59;52.73;100485.56;5043032;28;45243;-66
2022/08/16 06:08:33;;;;;;;;;14.33;13.00;;;;;23.66;52.78;100498.47;5042322;28;69539;-66
2022/08/16 06:10:58;;;;;;;;;14.33;13.00;;;;;23.70;52.63;100502.53;5039813;28;68515;-66
2022/08/16 06:13:24;;;;;;;;;13.00;13.00;;;;;23.74;52.68;100495.75;5041727;28;45621;-66
2022/08/16 06:15:50;;;;;;;;;8.67;8.67;;;;;23.79;52.31;100498.78;5041039;28;63207;-66
2022/08/16 06:18:17;;;;;;;;;14.00;14.00;;;;;23.83;52.28;100499.31;5042325;28;46381;-66
2022/08/16 06:20:42;;;;;;;;;13.33;13.33;;;;;23.87;52.46;100500.66;5033667;28;45525;-66
2022/08/16 06:23:08;;;;;;;;;15.00;15.00;;;;;23.88;51.88;100500.47;5040523;28;70997;-66
2022/08/16 06:25:33;;;;;;;;;12.67;12.00;;;;;23.91;52.27;100504.75;5039853;28;68217;-67
2022/08/16 06:27:59;;;;;;;;;16.00;14.33;;;;;23.94;52.17;100499.84;5041713;28;65391;-66
2022/08/16 06:30:24;;;;;;;;;12.00;12.00;;;;;24.01;51.72;100502.72;5042045;28;46058;-65
2022/08/16 06:32:49;;;;;;;;;14.33;14.33;;;;;24.08;51.82;100500.19;5033493;28;69068;-67
2022/08/16 06:35:16;;;;;;;;;15.67;14.00;;;;;24.14;51.56;100502.19;5034242;28;45320;-67
2022/08/16 06:37:41;;;;;;;;;16.00;16.00;;;;;24.11;51.36;100502.53;5041553;28;45630;-68
2022/08/16 06:40:08;;;;;;;;;12.00;12.00;;;;;24.03;51.21;100494.41;5042207;28;45625;-68
2022/08/16 06:42:33;;;;;;;;;11.33;11.33;;;;;24.04;51.39;100504.22;5037744;28;45278;-68
2022/08/16 06:44:59;;;;;;;;;14.00;14.00;;;;;24.08;51.03;100502.91;5041069;28;67245;-68
2022/08/16 06:47:24;;;;;;;;;17.00;17.00;;;;;24.02;51.00;100503.56;5042349;28;45468;-68
2022/08/16 06:49:49;;;;;;;;;12.00;12.00;;;;;23.90;51.40;100503.91;5040897;28;60711;-68
2022/08/16 06:52:15;;;;;;;;;9.33;9.33;;;;;23.85;51.14;100500.84;5041506;28;68906;-68
2022/08/16 06:54:40;;;;;;;;;11.33;11.33;;;;;23.78;51.33;100497.13;5039463;28;46112;-68
2022/08/16 06:57:06;;;;;;;;;11.33;10.67;;;;;23.79;51.04;100501.50;5040530;28;45623;-68
2022/08/16 06:59:31;;;;;;;;;12.00;12.00;;;;;23.82;51.29;100508.47;5040044;28;45390;-68
2022/08/16 07:01:57;;;;;;;;;8.00;7.67;;;;;23.89;51.73;100502.19;5040131;28;61166;-68
2022/08/16 07:04:22;;;;;;;;;9.00;8.33;;;;;23.94;50.70;100507.97;5041188;28;45981;-68
2022/08/16 07:06:47;;;;;;;;;10.00;9.67;;;;;23.89;50.90;100507.63;5042306;28;61562;-68
2022/08/16 07:09:13;;;;;;;;;11.00;11.00;;;;;23.81;50.62;100507.63;5034883;28;46098;-67
2022/08/16 07:11:39;;;;;;;;;9.33;8.67;;;;;23.73;50.85;100513.06;5043592;28;45348;-67
2022/08/16 07:14:05;;;;;;;;;9.67;9.67;;;;;23.68;50.31;100513.56;5030823;28;45477;-67
2022/08/16 07:16:31;;;;;;;;;10.67;10.67;;;;;23.66;50.78;100514.75;5030893;28;45470;-67
2022/08/16 07:18:58;;;;;;;;;15.00;13.00;;;;;23.65;50.28;100510.34;5038175;28;68382;-67
2022/08/16 07:21:24;;;;;;;;;7.33;5.67;;;;;23.59;50.37;100511.88;5039328;28;45434;-67
2022/08/16 07:23:49;;;;;;;;;8.00;8.00;;;;;23.55;50.76;100511.34;5039576;28;45355;-67
2022/08/16 07:26:23;;;;;;;;;11.33;11.33;;;;;23.52;50.35;100522.56;5040400;28;45234;-67
2022/08/16 07:28:49;;;;;;;;;10.67;8.67;;;;;23.45;50.25;100516.97;5040483;28;45264;-67
2022/08/16 07:31:15;;;;;;;;;10.67;9.00;;;;;23.41;50.52;100518.31;5024186;28;45528;-67
2022/08/16 07:33:41;;;;;;;;;9.00;9.00;;;;;23.40;50.60;100519.34;5020200;28;45497;-67
2022/08/16 07:36:08;;;;;;;;;9.33;9.33;;;;;23.38;50.16;100525.94;5020280;28;46440;-67
2022/08/16 07:38:34;;;;;;;;;13.00;11.00;;;;;23.40;50.61;100521.19;5022228;28;46463;-68
2022/08/16 07:41:01;;;;;;;;;11.00;11.00;;;;;23.39;50.29;100528.47;5036994;28;45537;-65
2022/08/16 07:43:26;;;;;;;;;12.00;11.33;;;;;23.39;50.39;100522.22;5051426;28;45493;-67
2022/08/16 07:45:52;;;;;;;;;14.67;13.00;;;;;23.41;50.23;100523.75;5043974;28;45552;-67
2022/08/16 07:48:18;;;;;;;;;12.00;12.00;;;;;23.39;50.44;100525.75;5039597;28;46150;-66
2022/08/16 07:50:44;;;;;;;;;8.33;8.33;;;;;23.36;50.46;100528.81;5032223;28;45453;-68
2022/08/16 07:53:09;;;;;;;;;8.67;8.67;;;;;23.37;50.54;100532.38;5026264;28;45779;-68
2022/08/16 07:55:35;;;;;;;;;11.00;11.00;;;;;23.44;50.61;100526.13;5036114;28;45501;-68
2022/08/16 07:58:02;;;;;;;;;8.33;8.33;;;;;23.58;50.76;100523.75;5041637;28;46042;-68
2022/08/16 08:00:27;;;;;;;;;15.67;15.00;;;;;23.68;50.41;100527.16;5038128;28;46623;-68
2022/08/16 08:02:54;;;;;;;;;10.00;9.00;;;;;23.74;50.36;100531.03;5037685;28;66037;-68
2022/08/16 08:05:21;;;;;;;;;11.67;11.33;;;;;23.80;50.22;100541.22;5040196;28;45407;-68
2022/08/16 08:07:46;;;;;;;;;10.67;10.67;;;;;23.86;49.91;100535.13;5028784;28;46146;-68
2022/08/16 08:10:11;;;;;;;;;6.67;6.33;;;;;24.00;50.03;100532.75;5035148;28;65828;-68
2022/08/16 08:12:37;;;;;;;;;12.33;10.67;;;;;24.14;49.90;100531.22;5036504;28;45558;-68
2022/08/16 08:15:05;;;;;;;;;8.33;7.00;;;;;24.30;49.63;100528.50;5036672;28;45558;-68
2022/08/16 08:17:32;;;;;;;;;13.00;13.00;;;;;24.43;49.48;100528.78;5030232;28;47066;-68
2022/08/16 08:19:58;;;;;;;;;10.00;10.00;;;;;24.47;49.42;100525.72;5028876;28;45538;-68
2022/08/16 08:22:23;;;;;;;;;8.33;8.33;;;;;24.52;49.00;100531.47;5036755;28;45523;-67
2022/08/16 08:24:48;;;;;;;;;10.33;10.33;;;;;24.59;49.34;100535.19;5040002;28;66047;-68
2022/08/16 08:27:14;;;;;;;;;10.00;10.00;;;;;24.73;48.63;100531.78;5032035;28;49627;-67
2022/08/16 08:29:39;;;;;;;;;8.00;8.00;;;;;24.87;48.23;100535.59;5034548;28;45401;-68
2022/08/16 08:32:06;;;;;;;;;12.67;11.67;;;;;25.14;48.25;100533.44;5052030;28;45408;-68
2022/08/16 08:34:32;;;;;;;;;7.67;7.67;;;;;25.74;47.41;100528.28;5039388;28;45541;-68
2022/08/16 08:36:57;;;;;;;;;6.00;6.00;;;;;25.99;46.96;100530.81;5038435;28;46328;-68
2022/08/16 08:39:23;;;;;;;;;13.33;9.67;;;;;26.14;46.46;100529.00;5038478;28;45366;-68
2022/08/16 08:41:48;;;;;;;;;9.00;7.67;;;;;26.18;46.03;100532.16;5035825;28;49286;-68
2022/08/16 08:44:13;;;;;;;;;9.67;9.67;;;;;26.04;45.98;100528.41;5031732;28;45450;-68
2022/08/16 08:46:39;;;;;;;;;13.33;12.33;;;;;25.85;45.83;100537.91;5036077;28;46062;-68
2022/08/16 08:49:06;;;;;;;;;8.00;8.00;;;;;25.67;46.01;100533.63;5037681;28;56691;-68
2022/08/16 08:51:32;;;;;;;;;10.00;10.00;;;;;25.50;46.26;100549.25;5037860;28;45414;-67
2022/08/16 08:53:58;;;;;;;;;9.67;9.33;;;;;25.40;46.95;100545.91;5037274;28;45353;-68
2022/08/16 08:56:23;;;;;;;;;10.67;10.67;;;;;25.32;46.39;100544.06;5038496;28;46141;-67
2022/08/16 08:58:48;;;;;;;;;10.00;9.67;;;;;25.29;47.24;100543.56;5036225;28;62771;-67
2022/08/16 09:01:17;;;;;;;;;11.00;9.00;;;;;25.41;46.72;100542.16;5036288;28;65372;-66
2022/08/16 09:03:42;;;;;;;;;7.00;7.00;;;;;25.51;47.06;100539.19;5036305;28;45630;-62
2022/08/16 09:06:07;;;;;;;;;11.00;10.00;;;;;25.54;45.81;100545.13;5036213;28;74226;-66
2022/08/16 09:08:34;;;;;;;;;14.67;13.33;;;;;25.43;45.75;100545.53;5037141;28;62254;-67
2022/08/16 09:10:59;;;;;;;;;7.00;7.00;;;;;25.40;46.31;100551.34;5038649;28;45461;-67
2022/08/16 09:13:25;;;;;;;;;6.33;6.33;;;;;25.54;46.36;100550.56;5038563;28;45459;-68
2022/08/16 09:15:54;;;;;;;;;10.00;10.00;;;;;25.76;46.38;100548.88;5038908;28;46125;-67
2022/08/16 09:18:21;;;;;;;;;10.67;10.67;;;;;26.02;45.56;100552.22;5038814;28;45474;-62
2022/08/16 09:20:47;;;;;;;;;7.00;7.00;;;;;26.49;45.33;100559.28;5038808;28;45438;-66
2022/08/16 09:23:12;;;;;;;;;8.00;8.00;;;;;27.25;44.13;100560.94;5037295;28;45563;-66
2022/08/16 09:25:38;;;;;;;;;9.67;9.67;;;;;27.93;43.64;100562.47;5041315;28;45981;-66
2022/08/16 09:28:04;;;;;;;;;15.00;11.33;;;;;28.53;41.64;100552.84;5038037;28;71031;-63
2022/08/16 09:30:33;;;;;;;;;11.00;10.00;;;;;28.95;40.76;100560.25;5037274;28;45237;-66
2022/08/16 09:32:58;;;;;;;;;6.00;6.00;;;;;29.10;40.69;100566.41;5033347;28;45559;-63
2022/08/16 09:35:23;;;;;;;;;12.00;10.33;;;;;29.07;39.65;100572.28;5040648;28;70338;-66
2022/08/16 09:37:49;;;;;;;;;15.33;15.33;;;;;28.87;38.34;100573.03;5042174;28;45410;-66
2022/08/16 09:40:14;;;;;;;;;8.33;7.00;;;;;28.35;39.27;100568.91;5043892;28;45428;-67
2022/08/16 09:42:40;;;;;;;;;13.00;13.00;;;;;27.96;39.02;100562.91;5040135;28;45424;-68
2022/08/16 09:45:07;;;;;;;;;9.00;9.00;;;;;27.63;40.34;100568.91;5039012;28;62399;-68
2022/08/16 09:47:39;;;;;;;;;8.33;7.00;;;;;27.58;40.23;100571.38;5042115;28;45433;-64
2022/08/16 09:50:06;;;;;;;;;9.00;7.33;;;;;27.43;40.36;100573.31;5041533;28;45505;-67
2022/08/16 09:52:34;;;;;;;;;12.67;10.67;;;;;27.45;40.62;100568.53;5034300;28;45597;-63
2022/08/16 09:55:02;;;;;;;;;11.67;7.00;;;;;27.60;40.38;100580.25;5040043;28;45262;-68
2022/08/16 09:57:27;;;;;;;;;9.00;8.00;;;;;27.51;40.56;100575.94;5040035;28;45617;-64
2022/08/16 09:59:53;;;;;;;;;9.00;9.00;;;;;27.39;40.83;100572.84;5037284;28;45355;-67
2022/08/16 10:02:18;;;;;;;;;8.00;8.00;;;;;27.29;40.96;100567.69;5041447;28;47287;-65
2022/08/16 10:04:43;;;;;;;;;6.00;6.00;;;;;27.26;41.18;100569.94;5040947;28;74437;-68
2022/08/16 10:07:09;;;;;;;;;6.33;6.33;;;;;27.36;41.51;100567.75;5042256;28;67254;-64
2022/08/16 10:09:34;;;;;;;;;12.00;11.33;;;;;27.49;40.65;100580.75;5041238;28;55054;-65
2022/08/16 10:14:44;;;;;;;;;10.00;10.00;;;;;27.79;40.48;100569.69;5041421;28;45483;-65
2022/08/16 10:17:11;;;;;;;;;9.33;7.67;;;;;27.68;40.30;100579.28;5042538;28;46269;-67
2022/08/16 10:19:36;;;;;;;;;7.33;7.00;;;;;28.08;40.68;100568.72;5041359;28;45395;-63
2022/08/16 10:22:01;;;;;;;;;10.67;8.67;;;;;29.17;39.75;100566.44;5041199;28;67222;-62
2022/08/16 10:24:27;;;;;;;;;6.00;5.00;;;;;30.07;37.32;100570.88;5040912;28;45391;-64
2022/08/16 10:26:53;;;;;;;;;6.33;6.33;;;;;30.69;37.62;100572.25;5048547;28;45382;-64
2022/08/16 10:29:19;;;;;;;;;9.33;8.33;;;;;31.01;35.86;100575.09;5043562;28;45654;-67
2022/08/16 10:31:44;;;;;;;;;6.33;6.00;;;;;30.88;35.29;100564.16;5041678;28;45748;-63
2022/08/16 10:34:10;;;;;;;;;9.33;9.33;;;;;30.61;34.10;100564.28;5043184;28;46164;-65
2022/08/16 10:36:35;;;;;;;;;12.00;12.00;;;;;30.25;35.07;100568.31;5048794;28;45456;-65
2022/08/16 10:39:02;;;;;;;;;11.00;9.00;;;;;29.82;36.00;100574.19;5041284;28;45310;-64
2022/08/16 10:41:27;;;;;;;;;8.67;7.67;;;;;29.42;36.83;100568.66;5037613;28;45893;-64
2022/08/16 10:43:53;;;;;;;;;7.33;7.33;;;;;29.05;36.79;100564.28;5039573;28;46216;-69
2022/08/16 10:46:18;;;;;;;;;8.00;8.00;;;;;28.84;37.38;100561.69;5033748;28;70844;-69
2022/08/16 10:48:44;;;;;;;;;7.00;7.00;;;;;28.65;37.89;100574.16;5039297;28;45421;-69
2022/08/16 10:51:10;;;;;;;;;6.00;6.00;;;;;28.32;38.00;100563.88;5040787;28;45624;-67
2022/08/16 10:53:36;;;;;;;;;10.00;9.33;;;;;28.06;38.63;100566.19;5040958;28;45335;-63
2022/08/16 10:56:05;;;;;;;;;10.00;9.00;;;;;27.93;39.11;100566.03;5035962;28;45565;-63
2022/08/16 10:58:30;;;;;;;;;9.00;9.00;;;;;27.76;39.32;100562.75;5033085;28;45795;-66
2022/08/16 11:00:55;;;;;;;;;11.67;11.67;;;;;27.58;39.80;100571.38;5040519;28;45467;-68
2022/08/16 11:03:21;;;;;;;;;11.67;11.67;;;;;27.48;40.41;100588.09;5038111;28;71905;-68
2022/08/16 11:05:46;;;;;;;;;9.00;8.67;;;;;27.45;40.41;100577.56;5047410;28;45552;-70
2022/08/16 11:08:12;;;;;;;;;8.33;8.33;;;;;27.40;40.29;100582.75;5043369;28;59469;-69
2022/08/16 11:10:41;;;;;;;;;5.00;5.00;;;;;27.42;40.47;100585.28;5040259;28;45520;-67
2022/08/16 11:13:08;;;;;;;;;7.67;7.33;;;;;27.44;40.79;100586.78;5039607;28;46361;-66
2022/08/16 11:15:35;;;;;;;;;11.33;8.33;;;;;27.52;40.89;100585.81;5044346;28;45298;-66
2022/08/16 11:18:01;;;;;;;;;9.33;9.33;;;;;27.54;40.92;100591.94;5037992;28;45436;-66
2022/08/16 11:20:27;;;;;;;;;10.67;10.67;;;;;27.49;40.83;100589.78;5035663;28;45460;-65
2022/08/16 11:22:54;;;;;;;;;9.67;9.67;;;;;27.43;41.03;100585.09;5038244;28;46607;-62
2022/08/16 11:25:23;;;;;;;;;11.67;10.33;;;;;27.57;41.06;100586.06;5038129;28;45401;-63
2022/08/16 11:27:49;;;;;;;;;10.67;9.67;;;;;27.80;40.81;100579.59;5029620;28;45458;-63
2022/08/16 11:30:15;;;;;;;;;8.67;7.67;;;;;28.03;40.80;100576.66;5037361;28;45380;-62
2022/08/16 11:32:43;;;;;;;;;13.00;12.67;;;;;28.17;40.43;100574.88;5038264;28;47346;-67
2022/08/16 11:35:11;;;;;;;;;6.00;6.00;;;;;28.04;39.64;100578.34;5053330;28;45463;-67
2022/08/16 11:37:36;;;;;;;;;8.67;8.67;;;;;27.93;40.09;100579.72;5039953;28;45385;-63
2022/08/16 11:40:05;;;;;;;;;8.33;8.33;;;;;27.82;39.98;100586.56;5036007;28;45308;-66
2022/08/16 11:42:30;;;;;;;;;9.33;7.67;;;;;27.70;40.20;100586.22;5043419;28;45342;-69
2022/08/16 11:44:56;;;;;;;;;11.67;11.67;;;;;27.68;40.13;100590.19;5031820;28;45494;-65
2022/08/16 11:47:21;;;;;;;;;9.00;9.00;;;;;27.63;40.66;100585.31;5039184;28;45507;-65
2022/08/16 11:49:47;;;;;;;;;7.00;7.00;;;;;27.65;40.75;100596.91;5039671;28;45296;-64
2022/08/16 11:52:12;;;;;;;;;7.67;6.33;;;;;27.61;40.26;100597.47;5040986;28;69298;-67
2022/08/16 11:54:39;;;;;;;;;9.33;8.00;;;;;27.65;40.69;100596.03;5040269;28;45609;-62
2022/08/16 11:57:04;;;;;;;;;8.67;8.67;;;;;27.67;40.75;100597.53;5045358;28;45538;-63
2022/08/16 11:59:30;;;;;;;;;10.33;10.33;;;;;27.60;40.59;100593.03;5034086;28;45734;-63
2022/08/16 12:01:56;;;;;;;;;7.67;7.67;;;;;27.61;40.75;100590.09;5032653;28;47043;-61
2022/08/16 12:04:22;;;;;;;;;9.33;9.33;;;;;27.69;40.96;100580.94;5035863;28;45477;-62
2022/08/16 12:06:48;;;;;;;;;10.00;9.00;;;;;27.78;40.77;100579.75;5039489;28;45261;-62
2022/08/16 12:09:14;;;;;;;;;11.33;10.00;;;;;27.82;40.50;100585.69;5040274;28;45176;-64
2022/08/16 12:11:39;;;;;;;;;8.00;8.00;;;;;27.77;40.87;100579.97;5035954;28;65586;-63
2022/08/16 12:14:06;;;;;;;;;8.33;8.33;;;;;27.79;40.48;100577.91;5037734;28;70893;-63
2022/08/16 12:16:33;;;;;;;;;11.00;9.67;;;;;27.83;40.79;100584.66;5036240;28;45338;-63
2022/08/16 12:18:58;;;;;;;;;13.33;12.33;;;;;27.67;40.42;100589.34;5035137;28;45923;-64
2022/08/16 12:21:24;;;;;;;;;13.67;13.67;;;;;27.44;40.77;100592.22;5034874;28;45551;-65
2022/08/16 12:23:49;;;;;;;;;9.67;9.67;;;;;27.18;41.43;100590.00;5027888;28;45589;-66
2022/08/16 12:26:16;;;;;;;;;11.33;11.00;;;;;26.98;41.72;100587.88;5029947;28;60058;-66
2022/08/16 12:28:41;;;;;;;;;11.33;11.33;;;;;26.89;41.63;100592.59;5035992;28;45308;-66
2022/08/16 12:31:06;;;;;;;;;6.00;6.00;;;;;26.90;42.29;100597.00;5039172;28;70083;-66
2022/08/16 12:33:32;;;;;;;;;7.33;6.00;;;;;26.96;42.16;100598.16;5036026;28;45292;-66
2022/08/16 12:35:57;;;;;;;;;8.00;8.00;;;;;26.99;41.85;100589.59;5036504;28;45575;-66
2022/08/16 12:38:23;;;;;;;;;8.00;8.00;;;;;27.05;42.30;100598.88;5034186;28;56189;-65
2022/08/16 12:40:49;;;;;;;;;9.33;9.33;;;;;27.13;42.60;100595.19;5035504;28;72972;-63
2022/08/16 12:43:16;;;;;;;;;12.33;12.00;;;;;27.07;42.36;100594.91;5029829;28;45819;-66
2022/08/16 12:45:46;;;;;;;;;8.67;7.33;;;;;27.05;41.66;100598.88;5032197;28;45546;-66
2022/08/16 12:50:57;;;;;;;;;6.67;6.67;;;;;27.24;41.91;100601.00;5034056;28;45434;-62
2022/08/16 12:53:23;;;;;;;;;10.00;7.67;;;;;27.31;42.48;100598.38;5033430;28;45406;-66
2022/08/16 12:55:49;;;;;;;;;10.00;10.00;;;;;27.36;42.80;100595.91;5037471;28;45565;-61
2022/08/16 12:58:14;;;;;;;;;9.67;8.67;;;;;27.40;42.73;100597.25;5026342;28;66122;-62
2022/08/16 13:00:41;;;;;;;;;12.33;11.00;;;;;27.42;42.49;100588.88;5033719;28;45335;-62
2022/08/16 13:03:08;;;;;;;;;6.67;6.67;;;;;27.44;42.94;100588.66;5034432;28;45311;-61
2022/08/16 13:05:40;;;;;;;;;9.00;9.00;;;;;27.45;42.84;100588.47;5034627;28;45366;-66
2022/08/16 13:08:10;;;;;;;;;13.33;13.33;;;;;27.46;43.27;100589.34;5037201;28;45805;-67
2022/08/16 13:10:37;;;;;;;;;10.67;10.67;;;;;27.46;42.74;100590.16;5045708;28;45539;-66
2022/08/16 13:13:04;;;;;;;;;8.00;7.00;;;;;27.53;43.50;100593.84;5037625;28;45480;-66
2022/08/16 13:15:30;;;;;;;;;8.33;8.33;;;;;27.59;43.74;100591.34;5031612;28;45496;-66
2022/08/16 13:17:56;;;;;;;;;9.33;8.33;;;;;27.61;43.40;100592.00;5026541;28;45362;-66
2022/08/16 13:20:23;;;;;;;;;3.67;3.67;;;;;27.67;43.09;100591.22;5035848;28;45528;-66
2022/08/16 13:22:53;;;;;;;;;9.33;9.33;;;;;27.76;43.01;100581.88;5035026;28;45510;-66
2022/08/16 13:25:22;;;;;;;;;8.00;8.00;;;;;27.86;43.06;100568.72;5036774;28;45353;-66
2022/08/16 13:27:48;;;;;;;;;9.00;8.00;;;;;27.98;42.80;100568.19;5034658;28;45791;-66
2022/08/16 13:30:14;;;;;;;;;8.00;8.00;;;;;28.04;42.91;100559.22;5035053;28;47068;-66
2022/08/16 13:32:39;;;;;;;;;7.00;7.00;;;;;28.11;42.34;100554.66;5030768;28;66314;-66
2022/08/16 13:35:05;;;;;;;;;8.00;8.00;;;;;28.15;42.42;100555.94;5041802;28;46754;-66
2022/08/16 13:37:31;;;;;;;;;8.67;7.67;;;;;28.18;42.16;100561.00;5037024;28;45395;-62
2022/08/16 13:39:56;;;;;;;;;8.67;8.33;;;;;28.16;41.67;100559.53;5037311;28;45505;-62
2022/08/16 13:42:23;;;;;;;;;12.33;12.33;;;;;28.20;41.70;100548.00;5036663;28;45497;-62
2022/08/16 13:44:49;;;;;;;;;9.33;9.33;;;;;28.26;41.86;100538.16;5036270;28;45605;-62
2022/08/16 13:47:15;;;;;;;;;10.00;10.00;;;;;28.32;41.81;100531.88;5036886;28;45303;-62
2022/08/16 13:49:40;;;;;;;;;8.33;8.33;;;;;28.39;41.72;100534.66;5035075;28;70410;-61
2022/08/16 13:52:07;;;;;;;;;10.33;10.00;;;;;28.45;41.82;100533.88;5036603;28;57891;-62
2022/08/16 13:54:32;;;;;;;;;9.67;9.67;;;;;28.50;41.73;100528.63;5035312;28;45450;-63
2022/08/16 13:56:59;;;;;;;;;10.00;8.00;;;;;28.52;41.12;100532.00;5035412;28;45535;-62
2022/08/16 13:59:24;;;;;;;;;8.33;7.67;;;;;28.54;41.46;100529.91;5037107;28;46335;-62
2022/08/16 14:01:55;;;;;;;;;9.00;9.00;;;;;28.54;41.21;100529.09;5033353;28;65374;-61
2022/08/16 14:04:21;;;;;;;;;7.33;7.33;;;;;28.52;41.30;100523.78;5031163;28;45541;-62
2022/08/16 14:06:46;;;;;;;;;11.67;10.33;;;;;28.49;41.56;100520.63;5035225;28;45391;-63
2022/08/16 14:09:11;;;;;;;;;7.00;7.00;;;;;28.47;41.31;100523.53;5035703;28;73597;-62
2022/08/16 14:11:37;;;;;;;;;9.33;9.33;;;;;28.45;41.48;100525.66;5034799;28;45324;-62
2022/08/16 14:14:03;;;;;;;;;9.00;9.00;;;;;28.42;41.29;100523.34;5035293;28;45821;-62
2022/08/16 14:16:28;;;;;;;;;10.00;8.33;;;;;28.34;41.22;100524.34;5035788;28;45430;-62
2022/08/16 14:18:54;;;;;;;;;12.00;12.00;;;;;28.28;41.66;100529.75;5035836;28;74738;-62
2022/08/16 14:21:20;;;;;;;;;12.00;10.00;;;;;28.20;41.77;100536.22;5039104;28;63505;-62
2022/08/16 14:23:46;;;;;;;;;6.67;6.67;;;;;28.15;41.87;100535.97;5039974;28;45323;-62
2022/08/16 14:26:11;;;;;;;;;10.00;9.33;;;;;28.15;41.79;100535.97;5038170;28;45596;-62
2022/08/16 14:28:36;;;;;;;;;11.67;10.67;;;;;28.16;41.78;100535.78;5036107;28;45961;-62
2022/08/16 14:31:02;;;;;;;;;11.33;11.33;;;;;28.19;41.28;100529.91;5038597;28;55415;-62
2022/08/16 14:33:28;;;;;;;;;9.00;9.00;;;;;28.21;41.30;100535.16;5038737;28;45360;-62
2022/08/16 14:35:53;;;;;;;;;11.00;9.67;;;;;28.25;41.36;100538.34;5039761;28;45518;-62
2022/08/16 14:38:20;;;;;;;;;12.33;10.67;;;;;28.28;41.26;100532.47;5035910;28;47059;-62
2022/08/16 14:40:46;;;;;;;;;9.00;9.00;;;;;28.31;41.43;100538.38;5034814;28;45225;-62
2022/08/16 14:43:12;;;;;;;;;10.00;10.00;;;;;28.34;41.34;100527.06;5040396;28;45525;-62
2022/08/16 14:45:37;;;;;;;;;9.00;9.00;;;;;28.35;40.77;100525.16;5039479;28;45438;-62
2022/08/16 14:48:03;;;;;;;;;7.33;7.33;;;;;28.34;40.51;100529.81;5034464;28;45522;-62
2022/08/16 14:50:28;;;;;;;;;13.00;12.00;;;;;28.20;39.96;100523.41;5039222;28;45399;-64
2022/08/16 14:52:57;;;;;;;;;11.00;10.67;;;;;28.10;40.39;100524.81;5033442;28;64844;-62
2022/08/16 14:55:25;;;;;;;;;10.00;10.00;;;;;28.14;40.24;100518.72;5022986;28;46032;-62
2022/08/16 14:57:50;;;;;;;;;8.00;8.00;;;;;28.19;40.49;100512.66;5021953;28;46783;-62
2022/08/16 15:00:16;;;;;;;;;8.67;8.67;;;;;28.26;40.32;100512.72;5020067;28;47048;-62
2022/08/16 15:02:42;;;;;;;;;10.00;10.00;;;;;28.32;40.18;100509.19;5022664;28;45953;-63
2022/08/16 15:05:09;;;;;;;;;11.33;10.00;;;;;28.32;40.00;100520.13;5022428;28;47094;-62
2022/08/16 15:07:35;;;;;;;;;10.67;9.33;;;;;28.20;40.01;100515.19;5019278;28;46353;-62
2022/08/16 15:10:01;;;;;;;;;12.00;10.67;;;;;28.19;40.32;100518.13;5025575;28;45483;-63
2022/08/16 15:12:28;;;;;;;;;12.00;10.33;;;;;28.24;40.54;100507.44;5037252;28;45390;-63
2022/08/16 15:14:54;;;;;;;;;11.67;11.67;;;;;28.31;40.32;100493.81;5039937;28;45310;-66
2022/08/16 15:17:21;;;;;;;;;10.67;9.00;;;;;28.37;40.18;100502.06;5030263;28;46263;-66
2022/08/16 15:19:52;;;;;;;;;8.00;8.00;;;;;28.46;40.17;100494.53;5038671;28;45311;-66
2022/08/16 15:22:32;;;;;;;;;10.67;10.67;;;;;28.49;39.93;100487.81;5039443;28;45683;-62
2022/08/16 15:24:59;;;;;;;;;10.00;10.00;;;;;28.47;40.11;100490.72;5039733;28;45649;-62
2022/08/16 15:27:26;;;;;;;;;9.33;8.67;;;;;28.43;39.66;100489.44;5037008;28;46157;-62
2022/08/16 15:29:52;;;;;;;;;13.00;12.67;;;;;28.34;40.09;100496.13;5037494;28;45581;-62
2022/08/16 15:32:17;;;;;;;;;11.67;10.33;;;;;28.27;40.02;100487.91;5037218;28;45606;-62
2022/08/16 15:34:43;;;;;;;;;12.00;11.00;;;;;28.27;40.04;100476.97;5038451;28;45387;-62
2022/08/16 15:37:10;;;;;;;;;11.00;10.00;;;;;28.25;39.91;100476.31;5038504;28;45973;-61
2022/08/16 15:39:35;;;;;;;;;10.00;10.00;;;;;28.26;40.24;100468.97;5031065;28;45461;-62
2022/08/16 15:42:05;;;;;;;;;9.00;8.67;;;;;28.30;40.38;100462.88;5038307;28;45475;-62
2022/08/16 15:44:35;;;;;;;;;8.33;8.33;;;;;28.34;40.22;100457.84;5036952;28;45358;-64
2022/08/16 15:47:02;;;;;;;;;8.67;8.67;;;;;28.35;40.06;100441.25;5037143;28;47070;-63